sensor_id;sensor_type;location;lat;lon;timestamp;pressure;altitude;pressure_sealevel;temperature;humidity
48053;BME280;33824;51.600;5.718;2023-04-15T00:00:37;100608.75;;;8.80;67.99
48053;BME280;33824;51.600;5.718;2023-04-15T00:03:13;100607.59;;;8.74;67.96
48053;BME280;33824;51.600;5.718;2023-04-15T00:05:38;100614.75;;;8.74;68.62
48053;BME280;33824;51.600;5.718;2023-04-15T00:08:04;100606.44;;;8.68;68.57
48053;BME280;33824;51.600;5.718;2023-04-15T00:10:29;100616.22;;;8.68;68.89
48053;BME280;33824;51.600;5.718;2023-04-15T00:12:55;100606.78;;;8.65;68.59
48053;BME280;33824;51.600;5.718;2023-04-15T00:15:21;100611.75;;;8.60;69.05
48053;BME280;33824;51.600;5.718;2023-04-15T00:17:49;100608.94;;;8.54;68.89
48053;BME280;33824;51.600;5.718;2023-04-15T00:20:15;100609.91;;;8.53;69.46
48053;BME280;33824;51.600;5.718;2023-04-15T00:22:40;100606.75;;;8.49;69.36
48053;BME280;33824;51.600;5.718;2023-04-15T00:25:06;100604.44;;;8.46;69.28
48053;BME280;33824;51.600;5.718;2023-04-15T00:27:32;100607.78;;;8.40;69.14
48053;BME280;33824;51.600;5.718;2023-04-15T00:29:58;100607.28;;;8.37;69.29
48053;BME280;33824;51.600;5.718;2023-04-15T00:32:23;100606.44;;;8.36;69.50
48053;BME280;33824;51.600;5.718;2023-04-15T00:34:49;100606.25;;;8.38;69.60
48053;BME280;33824;51.600;5.718;2023-04-15T00:37:15;100606.44;;;8.36;69.97
48053;BME280;33824;51.600;5.718;2023-04-15T00:39:40;100609.25;;;8.35;70.03
48053;BME280;33824;51.600;5.718;2023-04-15T00:42:06;100607.59;;;8.34;70.00
48053;BME280;33824;51.600;5.718;2023-04-15T00:44:32;100608.59;;;8.33;69.88
48053;BME280;33824;51.600;5.718;2023-04-15T00:46:59;100610.75;;;8.29;69.72
48053;BME280;33824;51.600;5.718;2023-04-15T00:49:27;100615.06;;;8.30;69.52
48053;BME280;33824;51.600;5.718;2023-04-15T00:51:53;100615.91;;;8.31;69.71
48053;BME280;33824;51.600;5.718;2023-04-15T00:54:19;100614.91;;;8.32;69.70
48053;BME280;33824;51.600;5.718;2023-04-15T00:56:44;100614.91;;;8.32;69.91
48053;BME280;33824;51.600;5.718;2023-04-15T00:59:10;100611.41;;;8.31;70.13
48053;BME280;33824;51.600;5.718;2023-04-15T01:01:35;100612.59;;;8.29;69.93
48053;BME280;33824;51.600;5.718;2023-04-15T01:04:01;100612.72;;;8.27;70.01
48053;BME280;33824;51.600;5.718;2023-04-15T01:06:27;100617.38;;;8.25;70.06
48053;BME280;33824;51.600;5.718;2023-04-15T01:08:54;100614.88;;;8.24;70.02
48053;BME280;33824;51.600;5.718;2023-04-15T01:11:20;100615.00;;;8.22;70.26
48053;BME280;33824;51.600;5.718;2023-04-15T01:13:47;100603.25;;;8.16;70.29
48053;BME280;33824;51.600;5.718;2023-04-15T01:16:13;100608.06;;;8.13;70.20
48053;BME280;33824;51.600;5.718;2023-04-15T01:18:38;100605.03;;;8.08;70.55
48053;BME280;33824;51.600;5.718;2023-04-15T01:21:05;100609.69;;;8.06;70.79
48053;BME280;33824;51.600;5.718;2023-04-15T01:23:32;100602.03;;;8.03;71.15
48053;BME280;33824;51.600;5.718;2023-04-15T01:25:58;100608.50;;;8.00;71.05
48053;BME280;33824;51.600;5.718;2023-04-15T01:28:24;100609.00;;;7.96;71.51
48053;BME280;33824;51.600;5.718;2023-04-15T01:30:50;100607.84;;;7.90;71.22
48053;BME280;33824;51.600;5.718;2023-04-15T01:33:15;100613.97;;;7.83;71.43
48053;BME280;33824;51.600;5.718;2023-04-15T01:35:41;100615.41;;;7.77;71.66
48053;BME280;33824;51.600;5.718;2023-04-15T01:38:10;100607.94;;;7.72;71.66
48053;BME280;33824;51.600;5.718;2023-04-15T01:40:36;100606.31;;;7.71;71.54
48053;BME280;33824;51.600;5.718;2023-04-15T01:43:02;100610.91;;;7.69;71.58
48053;BME280;33824;51.600;5.718;2023-04-15T01:45:28;100605.09;;;7.66;72.09
48053;BME280;33824;51.600;5.718;2023-04-15T01:47:54;100611.91;;;7.60;72.04
48053;BME280;33824;51.600;5.718;2023-04-15T01:50:20;100611.06;;;7.60;72.41
48053;BME280;33824;51.600;5.718;2023-04-15T01:52:46;100616.38;;;7.60;72.32
48053;BME280;33824;51.600;5.718;2023-04-15T01:55:12;100612.88;;;7.59;72.79
48053;BME280;33824;51.600;5.718;2023-04-15T01:57:38;100617.50;;;7.57;73.11
48053;BME280;33824;51.600;5.718;2023-04-15T02:00:04;100616.00;;;7.55;73.58
48053;BME280;33824;51.600;5.718;2023-04-15T02:02:32;100618.81;;;7.53;73.68
48053;BME280;33824;51.600;5.718;2023-04-15T02:04:57;100617.81;;;7.54;73.85
48053;BME280;33824;51.600;5.718;2023-04-15T02:07:23;100616.47;;;7.50;74.35
48053;BME280;33824;51.600;5.718;2023-04-15T02:09:49;100624.63;;;7.49;74.75
48053;BME280;33824;51.600;5.718;2023-04-15T02:12:14;100617.13;;;7.44;74.44
48053;BME280;33824;51.600;5.718;2023-04-15T02:14:40;100619.09;;;7.42;74.77
48053;BME280;33824;51.600;5.718;2023-04-15T02:17:05;100618.28;;;7.42;75.30
48053;BME280;33824;51.600;5.718;2023-04-15T02:19:35;100620.25;;;7.40;75.47
48053;BME280;33824;51.600;5.718;2023-04-15T02:22:01;100623.59;;;7.42;75.37
48053;BME280;33824;51.600;5.718;2023-04-15T02:24:28;100620.94;;;7.42;75.21
48053;BME280;33824;51.600;5.718;2023-04-15T02:26:53;100619.41;;;7.39;75.36
48053;BME280;33824;51.600;5.718;2023-04-15T02:29:19;100627.22;;;7.41;75.22
48053;BME280;33824;51.600;5.718;2023-04-15T02:31:44;100630.88;;;7.40;75.26
48053;BME280;33824;51.600;5.718;2023-04-15T02:34:10;100634.00;;;7.35;75.04
48053;BME280;33824;51.600;5.718;2023-04-15T02:36:36;100635.28;;;7.31;75.58
48053;BME280;33824;51.600;5.718;2023-04-15T02:39:02;100643.56;;;7.28;75.86
48053;BME280;33824;51.600;5.718;2023-04-15T02:41:28;100632.31;;;7.26;75.00
48053;BME280;33824;51.600;5.718;2023-04-15T02:43:54;100637.25;;;7.21;75.07
48053;BME280;33824;51.600;5.718;2023-04-15T02:46:21;100645.84;;;7.15;75.91
48053;BME280;33824;51.600;5.718;2023-04-15T02:48:49;100644.63;;;7.09;76.32
48053;BME280;33824;51.600;5.718;2023-04-15T02:51:17;100646.06;;;7.04;76.64
48053;BME280;33824;51.600;5.718;2023-04-15T02:53:44;100646.25;;;7.02;76.22
48053;BME280;33824;51.600;5.718;2023-04-15T02:56:10;100656.31;;;6.99;76.57
48053;BME280;33824;51.600;5.718;2023-04-15T02:58:36;100656.78;;;6.94;76.38
48053;BME280;33824;51.600;5.718;2023-04-15T03:01:02;100659.75;;;6.91;76.97
48053;BME280;33824;51.600;5.718;2023-04-15T03:03:27;100655.56;;;6.89;76.78
48053;BME280;33824;51.600;5.718;2023-04-15T03:05:53;100655.75;;;6.87;77.27
48053;BME280;33824;51.600;5.718;2023-04-15T03:08:18;100652.56;;;6.84;77.24
48053;BME280;33824;51.600;5.718;2023-04-15T03:10:45;100656.34;;;6.81;76.75
48053;BME280;33824;51.600;5.718;2023-04-15T03:13:11;100650.53;;;6.78;77.08
48053;BME280;33824;51.600;5.718;2023-04-15T03:15:37;100654.47;;;6.73;77.30
48053;BME280;33824;51.600;5.718;2023-04-15T03:18:02;100659.25;;;6.70;78.53
48053;BME280;33824;51.600;5.718;2023-04-15T03:20:28;100665.06;;;6.73;79.16
48053;BME280;33824;51.600;5.718;2023-04-15T03:22:53;100661.44;;;6.74;79.11
48053;BME280;33824;51.600;5.718;2023-04-15T03:25:19;100658.47;;;6.78;79.59
48053;BME280;33824;51.600;5.718;2023-04-15T03:27:45;100667.25;;;6.78;79.75
48053;BME280;33824;51.600;5.718;2023-04-15T03:30:11;100664.59;;;6.78;80.06
48053;BME280;33824;51.600;5.718;2023-04-15T03:32:36;100662.41;;;6.73;81.08
48053;BME280;33824;51.600;5.718;2023-04-15T03:35:02;100660.31;;;6.77;80.90
48053;BME280;33824;51.600;5.718;2023-04-15T03:37:28;100664.09;;;6.74;80.95
48053;BME280;33824;51.600;5.718;2023-04-15T03:39:53;100667.72;;;6.73;81.80
48053;BME280;33824;51.600;5.718;2023-04-15T03:42:19;100670.91;;;6.77;81.78
48053;BME280;33824;51.600;5.718;2023-04-15T03:44:45;100664.25;;;6.73;82.52
48053;BME280;33824;51.600;5.718;2023-04-15T03:47:10;100673.00;;;6.73;81.93
48053;BME280;33824;51.600;5.718;2023-04-15T03:49:39;100674.53;;;6.76;82.55
48053;BME280;33824;51.600;5.718;2023-04-15T03:52:04;100672.03;;;6.74;82.87
48053;BME280;33824;51.600;5.718;2023-04-15T03:54:30;100681.78;;;6.74;82.82
48053;BME280;33824;51.600;5.718;2023-04-15T03:56:55;100681.78;;;6.74;82.00
48053;BME280;33824;51.600;5.718;2023-04-15T03:59:22;100689.41;;;6.69;82.95
48053;BME280;33824;51.600;5.718;2023-04-15T04:01:47;100689.22;;;6.70;82.22
48053;BME280;33824;51.600;5.718;2023-04-15T04:04:13;100689.22;;;6.70;82.60
48053;BME280;33824;51.600;5.718;2023-04-15T04:06:38;100693.69;;;6.70;82.80
48053;BME280;33824;51.600;5.718;2023-04-15T04:09:04;100693.69;;;6.70;83.18
48053;BME280;33824;51.600;5.718;2023-04-15T04:11:29;100694.84;;;6.67;83.09
48053;BME280;33824;51.600;5.718;2023-04-15T04:13:56;100702.13;;;6.65;83.10
48053;BME280;33824;51.600;5.718;2023-04-15T04:16:21;100701.28;;;6.65;83.13
48053;BME280;33824;51.600;5.718;2023-04-15T04:18:47;100719.81;;;6.65;83.08
48053;BME280;33824;51.600;5.718;2023-04-15T04:21:12;100720.41;;;6.59;83.54
48053;BME280;33824;51.600;5.718;2023-04-15T04:23:38;100724.44;;;6.63;83.54
48053;BME280;33824;51.600;5.718;2023-04-15T04:26:03;100727.53;;;6.58;83.92
48053;BME280;33824;51.600;5.718;2023-04-15T04:28:29;100736.31;;;6.59;84.97
48053;BME280;33824;51.600;5.718;2023-04-15T04:30:55;100737.97;;;6.60;84.48
48053;BME280;33824;51.600;5.718;2023-04-15T04:33:21;100731.00;;;6.59;84.15
48053;BME280;33824;51.600;5.718;2023-04-15T04:35:46;100737.31;;;6.58;85.36
48053;BME280;33824;51.600;5.718;2023-04-15T04:38:12;100742.59;;;6.58;84.64
48053;BME280;33824;51.600;5.718;2023-04-15T04:40:37;100740.75;;;6.58;84.92
48053;BME280;33824;51.600;5.718;2023-04-15T04:43:03;100743.72;;;6.55;85.30
48053;BME280;33824;51.600;5.718;2023-04-15T04:45:29;100745.53;;;6.55;85.27
48053;BME280;33824;51.600;5.718;2023-04-15T04:47:54;100753.47;;;6.55;85.66
48053;BME280;33824;51.600;5.718;2023-04-15T04:50:20;100758.78;;;6.55;85.49
48053;BME280;33824;51.600;5.718;2023-04-15T04:52:46;100755.84;;;6.58;85.36
48053;BME280;33824;51.600;5.718;2023-04-15T04:55:11;100757.97;;;6.54;85.72
48053;BME280;33824;51.600;5.718;2023-04-15T04:57:37;100758.66;;;6.56;85.81
48053;BME280;33824;51.600;5.718;2023-04-15T05:00:05;100760.31;;;6.57;85.76
48053;BME280;33824;51.600;5.718;2023-04-15T05:02:34;100760.47;;;6.56;85.73
48053;BME280;33824;51.600;5.718;2023-04-15T05:05:00;100768.41;;;6.56;86.51
48053;BME280;33824;51.600;5.718;2023-04-15T05:07:26;100775.38;;;6.57;85.59
48053;BME280;33824;51.600;5.718;2023-04-15T05:09:51;100778.03;;;6.57;86.09
48053;BME280;33824;51.600;5.718;2023-04-15T05:12:17;100786.81;;;6.57;86.06
48053;BME280;33824;51.600;5.718;2023-04-15T05:14:43;100793.75;;;6.58;85.95
48053;BME280;33824;51.600;5.718;2023-04-15T05:17:09;100792.47;;;6.62;86.26
48053;BME280;33824;51.600;5.718;2023-04-15T05:19:35;100796.50;;;6.66;86.00
48053;BME280;33824;51.600;5.718;2023-04-15T05:22:01;100799.66;;;6.70;85.47
48053;BME280;33824;51.600;5.718;2023-04-15T05:24:26;100792.94;;;6.75;85.12
48053;BME280;33824;51.600;5.718;2023-04-15T05:26:52;100802.09;;;6.81;85.49
48053;BME280;33824;51.600;5.718;2023-04-15T05:29:17;100806.66;;;6.89;85.98
48053;BME280;33824;51.600;5.718;2023-04-15T05:31:43;100809.69;;;6.94;86.14
48053;BME280;33824;51.600;5.718;2023-04-15T05:34:08;100810.59;;;7.02;85.99
48053;BME280;33824;51.600;5.718;2023-04-15T05:36:36;100822.78;;;7.13;85.96
48053;BME280;33824;51.600;5.718;2023-04-15T05:39:01;100827.03;;;7.23;85.24
48053;BME280;33824;51.600;5.718;2023-04-15T05:41:27;100828.06;;;7.31;84.98
48053;BME280;33824;51.600;5.718;2023-04-15T05:43:52;100828.97;;;7.39;85.76
48053;BME280;33824;51.600;5.718;2023-04-15T05:46:18;100836.34;;;7.45;85.38
48053;BME280;33824;51.600;5.718;2023-04-15T05:48:43;100840.03;;;7.52;84.97
48053;BME280;33824;51.600;5.718;2023-04-15T05:51:09;100842.38;;;7.55;85.30
48053;BME280;33824;51.600;5.718;2023-04-15T05:53:34;100836.44;;;7.61;86.09
48053;BME280;33824;51.600;5.718;2023-04-15T05:56:00;100842.06;;;7.58;85.83
48053;BME280;33824;51.600;5.718;2023-04-15T05:58:25;100844.91;;;7.65;85.59
48053;BME280;33824;51.600;5.718;2023-04-15T06:00:51;100847.50;;;7.75;84.77
48053;BME280;33824;51.600;5.718;2023-04-15T06:03:17;100849.44;;;7.72;85.10
48053;BME280;33824;51.600;5.718;2023-04-15T06:05:43;100849.81;;;7.78;85.21
48053;BME280;33824;51.600;5.718;2023-04-15T06:08:09;100859.47;;;7.79;85.13
48053;BME280;33824;51.600;5.718;2023-04-15T06:10:36;100869.63;;;7.83;85.30
48053;BME280;33824;51.600;5.718;2023-04-15T06:13:02;100863.69;;;7.89;84.65
48053;BME280;33824;51.600;5.718;2023-04-15T06:15:28;100876.81;;;7.91;85.14
48053;BME280;33824;51.600;5.718;2023-04-15T06:17:54;100881.09;;;7.92;85.04
48053;BME280;33824;51.600;5.718;2023-04-15T06:20:20;100878.94;;;7.87;85.18
48053;BME280;33824;51.600;5.718;2023-04-15T06:22:46;100884.44;;;7.94;85.02
48053;BME280;33824;51.600;5.718;2023-04-15T06:25:11;100889.13;;;8.00;84.82
48053;BME280;33824;51.600;5.718;2023-04-15T06:27:37;100896.94;;;8.01;85.04
48053;BME280;33824;51.600;5.718;2023-04-15T06:30:03;100900.28;;;8.03;84.90
48053;BME280;33824;51.600;5.718;2023-04-15T06:32:29;100906.09;;;8.07;84.71
48053;BME280;33824;51.600;5.718;2023-04-15T06:34:55;100908.25;;;8.03;85.76
48053;BME280;33824;51.600;5.718;2023-04-15T06:37:20;100914.38;;;8.04;85.77
48053;BME280;33824;51.600;5.718;2023-04-15T06:39:46;100923.75;;;8.16;85.19
48053;BME280;33824;51.600;5.718;2023-04-15T06:42:12;100922.97;;;8.24;84.86
48053;BME280;33824;51.600;5.718;2023-04-15T06:44:38;100929.66;;;8.28;84.75
48053;BME280;33824;51.600;5.718;2023-04-15T06:47:03;100931.88;;;8.32;85.01
48053;BME280;33824;51.600;5.718;2023-04-15T06:49:29;100935.28;;;8.50;84.87
48053;BME280;33824;51.600;5.718;2023-04-15T06:51:55;100940.31;;;8.61;84.52
48053;BME280;33824;51.600;5.718;2023-04-15T06:54:20;100948.84;;;8.73;84.51
48053;BME280;33824;51.600;5.718;2023-04-15T06:56:46;100947.53;;;8.77;84.45
48053;BME280;33824;51.600;5.718;2023-04-15T06:59:12;100953.56;;;8.87;84.16
48053;BME280;33824;51.600;5.718;2023-04-15T07:01:41;100956.56;;;8.92;84.35
48053;BME280;33824;51.600;5.718;2023-04-15T07:04:06;100955.00;;;9.15;84.03
48053;BME280;33824;51.600;5.718;2023-04-15T07:06:32;100961.84;;;9.34;83.33
48053;BME280;33824;51.600;5.718;2023-04-15T07:08:58;100963.56;;;9.43;83.24
48053;BME280;33824;51.600;5.718;2023-04-15T07:11:26;100963.38;;;9.45;83.09
48053;BME280;33824;51.600;5.718;2023-04-15T07:13:52;100964.38;;;9.52;83.31
48053;BME280;33824;51.600;5.718;2023-04-15T07:16:17;100970.88;;;9.57;82.80
48053;BME280;33824;51.600;5.718;2023-04-15T07:18:43;100982.22;;;9.68;83.16
48053;BME280;33824;51.600;5.718;2023-04-15T07:21:09;100977.41;;;9.79;82.62
48053;BME280;33824;51.600;5.718;2023-04-15T07:23:34;100987.72;;;9.90;82.22
48053;BME280;33824;51.600;5.718;2023-04-15T07:26:00;100990.56;;;9.89;81.88
48053;BME280;33824;51.600;5.718;2023-04-15T07:28:26;100990.56;;;9.81;82.62
48053;BME280;33824;51.600;5.718;2023-04-15T07:30:51;100999.72;;;10.02;82.02
48053;BME280;33824;51.600;5.718;2023-04-15T07:33:17;101006.72;;;9.95;82.25
48053;BME280;33824;51.600;5.718;2023-04-15T07:35:42;101010.03;;;10.13;81.48
48053;BME280;33824;51.600;5.718;2023-04-15T07:38:09;101009.06;;;10.23;80.71
48053;BME280;33824;51.600;5.718;2023-04-15T07:40:37;101017.06;;;10.23;80.74
48053;BME280;33824;51.600;5.718;2023-04-15T07:43:04;101018.03;;;10.46;80.92
48053;BME280;33824;51.600;5.718;2023-04-15T07:45:30;101003.53;;;10.56;80.50
48053;BME280;33824;51.600;5.718;2023-04-15T07:47:56;101009.34;;;10.68;80.23
48053;BME280;33824;51.600;5.718;2023-04-15T07:50:22;101019.03;;;10.61;80.35
48053;BME280;33824;51.600;5.718;2023-04-15T07:52:50;101022.00;;;10.58;80.18
48053;BME280;33824;51.600;5.718;2023-04-15T07:55:16;101025.31;;;10.76;80.15
48053;BME280;33824;51.600;5.718;2023-04-15T07:57:44;101027.44;;;10.89;79.81
48053;BME280;33824;51.600;5.718;2023-04-15T08:00:11;101030.06;;;10.97;78.30
48053;BME280;33824;51.600;5.718;2023-04-15T08:02:37;101030.03;;;11.13;78.13
48053;BME280;33824;51.600;5.718;2023-04-15T08:05:03;101031.50;;;11.16;77.62
48053;BME280;33824;51.600;5.718;2023-04-15T08:07:29;101038.00;;;11.21;77.46
48053;BME280;33824;51.600;5.718;2023-04-15T08:09:54;101028.25;;;10.97;77.01
48053;BME280;33824;51.600;5.718;2023-04-15T08:12:20;101051.03;;;11.08;76.54
48053;BME280;33824;51.600;5.718;2023-04-15T08:14:46;101045.56;;;11.10;76.62
48053;BME280;33824;51.600;5.718;2023-04-15T08:17:12;101045.56;;;11.10;76.21
48053;BME280;33824;51.600;5.718;2023-04-15T08:19:37;101046.53;;;11.08;76.69
48053;BME280;33824;51.600;5.718;2023-04-15T08:22:03;101044.25;;;10.97;75.81
48053;BME280;33824;51.600;5.718;2023-04-15T08:24:30;101044.56;;;11.02;75.78
48053;BME280;33824;51.600;5.718;2023-04-15T08:26:55;101049.22;;;11.08;75.17
48053;BME280;33824;51.600;5.718;2023-04-15T08:29:22;101055.34;;;11.25;75.76
48053;BME280;33824;51.600;5.718;2023-04-15T08:31:47;101060.94;;;10.99;74.69
48053;BME280;33824;51.600;5.718;2023-04-15T08:34:13;101048.25;;;11.01;74.39
48053;BME280;33824;51.600;5.718;2023-04-15T08:36:39;101067.41;;;11.05;74.74
48053;BME280;33824;51.600;5.718;2023-04-15T08:39:05;101066.59;;;10.88;74.15
48053;BME280;33824;51.600;5.718;2023-04-15T08:41:38;101075.06;;;11.08;74.54
48053;BME280;33824;51.600;5.718;2023-04-15T08:44:04;101083.75;;;11.10;73.44
48053;BME280;33824;51.600;5.718;2023-04-15T08:46:31;101080.03;;;11.19;73.52
48053;BME280;33824;51.600;5.718;2023-04-15T08:48:59;101083.84;;;11.25;73.15
48053;BME280;33824;51.600;5.718;2023-04-15T08:51:25;101093.25;;;11.51;73.67
48053;BME280;33824;51.600;5.718;2023-04-15T08:53:51;101089.50;;;11.69;72.67
48053;BME280;33824;51.600;5.718;2023-04-15T08:56:18;101091.00;;;11.79;71.62
48053;BME280;33824;51.600;5.718;2023-04-15T08:58:45;101108.00;;;12.09;71.40
48053;BME280;33824;51.600;5.718;2023-04-15T09:01:12;101106.97;;;12.10;69.78
48053;BME280;33824;51.600;5.718;2023-04-15T09:03:38;101101.94;;;12.38;70.23
48053;BME280;33824;51.600;5.718;2023-04-15T09:06:04;101096.56;;;12.61;69.23
48053;BME280;33824;51.600;5.718;2023-04-15T09:08:31;101103.56;;;12.62;67.59
48053;BME280;33824;51.600;5.718;2023-04-15T09:10:56;101108.00;;;12.55;66.31
48053;BME280;33824;51.600;5.718;2023-04-15T09:13:22;101106.31;;;12.54;67.05
48053;BME280;33824;51.600;5.718;2023-04-15T09:15:47;101118.06;;;12.44;66.19
48053;BME280;33824;51.600;5.718;2023-04-15T09:18:26;101106.84;;;12.49;67.02
48053;BME280;33824;51.600;5.718;2023-04-15T09:20:52;101112.84;;;12.74;67.65
48053;BME280;33824;51.600;5.718;2023-04-15T09:23:17;101119.84;;;12.52;65.93
48053;BME280;33824;51.600;5.718;2023-04-15T09:25:43;101115.19;;;12.54;65.98
48053;BME280;33824;51.600;5.718;2023-04-15T09:28:09;101142.47;;;12.49;65.79
48053;BME280;33824;51.600;5.718;2023-04-15T09:30:36;101121.34;;;12.55;66.19
48053;BME280;33824;51.600;5.718;2023-04-15T09:33:02;101137.03;;;12.58;66.41
48053;BME280;33824;51.600;5.718;2023-04-15T09:35:33;101135.19;;;12.58;65.88
48053;BME280;33824;51.600;5.718;2023-04-15T09:38:07;101133.84;;;12.39;64.48
48053;BME280;33824;51.600;5.718;2023-04-15T09:40:38;101127.78;;;12.45;64.63
48053;BME280;33824;51.600;5.718;2023-04-15T09:43:04;101141.59;;;12.72;65.78
48053;BME280;33824;51.600;5.718;2023-04-15T09:45:32;101144.09;;;12.73;65.03
48053;BME280;33824;51.600;5.718;2023-04-15T09:47:58;101133.56;;;12.72;64.97
48053;BME280;33824;51.600;5.718;2023-04-15T09:50:28;101147.78;;;12.72;63.88
48053;BME280;33824;51.600;5.718;2023-04-15T09:52:54;101152.94;;;12.96;64.53
48053;BME280;33824;51.600;5.718;2023-04-15T09:55:20;101157.63;;;13.09;64.66
48053;BME280;33824;51.600;5.718;2023-04-15T09:57:45;101153.72;;;13.20;63.94
48053;BME280;33824;51.600;5.718;2023-04-15T10:00:12;101150.84;;;13.21;62.22
48053;BME280;33824;51.600;5.718;2023-04-15T10:02:41;101163.84;;;13.10;60.18
48053;BME280;33824;51.600;5.718;2023-04-15T10:05:14;101172.19;;;13.15;60.97
48053;BME280;33824;51.600;5.718;2023-04-15T10:07:40;101168.03;;;13.12;61.22
48053;BME280;33824;51.600;5.718;2023-04-15T10:10:07;101163.69;;;13.26;61.26
48053;BME280;33824;51.600;5.718;2023-04-15T10:12:39;101176.16;;;13.48;61.05
48053;BME280;33824;51.600;5.718;2023-04-15T10:15:13;101171.81;;;13.76;60.80
48053;BME280;33824;51.600;5.718;2023-04-15T10:17:43;101168.47;;;13.74;59.87
48053;BME280;33824;51.600;5.718;2023-04-15T10:20:09;101169.53;;;13.73;60.29
48053;BME280;33824;51.600;5.718;2023-04-15T10:22:35;101156.44;;;13.85;60.41
48053;BME280;33824;51.600;5.718;2023-04-15T10:25:01;101164.38;;;13.93;58.59
48053;BME280;33824;51.600;5.718;2023-04-15T10:27:27;101175.31;;;13.91;57.28
48053;BME280;33824;51.600;5.718;2023-04-15T10:29:53;101177.44;;;13.81;57.97
48053;BME280;33824;51.600;5.718;2023-04-15T10:32:19;101173.75;;;13.82;57.69
48053;BME280;33824;51.600;5.718;2023-04-15T10:34:47;101171.88;;;13.98;58.43
48053;BME280;33824;51.600;5.718;2023-04-15T10:37:20;101170.06;;;14.19;58.58
48053;BME280;33824;51.600;5.718;2023-04-15T10:39:45;101167.91;;;14.29;57.93
48053;BME280;33824;51.600;5.718;2023-04-15T10:42:13;101176.34;;;14.26;57.96
48053;BME280;33824;51.600;5.718;2023-04-15T10:44:51;101176.94;;;14.07;56.96
48053;BME280;33824;51.600;5.718;2023-04-15T10:47:20;101182.06;;;14.23;57.72
48053;BME280;33824;51.600;5.718;2023-04-15T10:49:48;101180.22;;;14.60;58.45
48053;BME280;33824;51.600;5.718;2023-04-15T10:52:16;101175.94;;;14.44;56.88
48053;BME280;33824;51.600;5.718;2023-04-15T10:54:42;101193.75;;;14.52;57.66
48053;BME280;33824;51.600;5.718;2023-04-15T10:57:21;101192.22;;;14.64;57.66
48053;BME280;33824;51.600;5.718;2023-04-15T11:05:03;101193.31;;;14.48;57.06
48053;BME280;33824;51.600;5.718;2023-04-15T11:07:36;101196.81;;;14.13;57.58
48053;BME280;33824;51.600;5.718;2023-04-15T11:12:59;101202.06;;;14.57;57.74
48053;BME280;33824;51.600;5.718;2023-04-15T11:15:33;101200.09;;;14.29;56.54
48053;BME280;33824;51.600;5.718;2023-04-15T11:18:14;101209.53;;;14.25;57.77
48053;BME280;33824;51.600;5.718;2023-04-15T11:20:43;101203.97;;;14.27;58.57
48053;BME280;33824;51.600;5.718;2023-04-15T11:23:09;101216.75;;;14.25;58.37
48053;BME280;33824;51.600;5.718;2023-04-15T11:25:35;101225.22;;;14.07;58.26
48053;BME280;33824;51.600;5.718;2023-04-15T11:28:05;101214.63;;;14.35;58.29
48053;BME280;33824;51.600;5.718;2023-04-15T11:30:33;101216.91;;;14.53;57.48
48053;BME280;33824;51.600;5.718;2023-04-15T11:33:02;101211.41;;;14.61;57.79
48053;BME280;33824;51.600;5.718;2023-04-15T11:35:31;101211.31;;;14.54;57.15
48053;BME280;33824;51.600;5.718;2023-04-15T11:37:57;101218.00;;;14.79;56.98
48053;BME280;33824;51.600;5.718;2023-04-15T11:40:24;101222.72;;;15.26;57.48
48053;BME280;33824;51.600;5.718;2023-04-15T11:43:15;101219.06;;;15.06;55.27
48053;BME280;33824;51.600;5.718;2023-04-15T11:46:01;101222.97;;;14.82;55.51
48053;BME280;33824;51.600;5.718;2023-04-15T11:48:34;101212.94;;;14.91;55.12
48053;BME280;33824;51.600;5.718;2023-04-15T11:51:03;101216.59;;;15.11;55.40
48053;BME280;33824;51.600;5.718;2023-04-15T11:53:41;101224.34;;;15.00;56.02
48053;BME280;33824;51.600;5.718;2023-04-15T11:56:09;101222.75;;;15.05;56.47
48053;BME280;33824;51.600;5.718;2023-04-15T11:58:36;101224.44;;;14.85;56.35
48053;BME280;33824;51.600;5.718;2023-04-15T12:01:05;101226.22;;;15.27;56.51
48053;BME280;33824;51.600;5.718;2023-04-15T12:03:42;101227.63;;;14.95;55.53
48053;BME280;33824;51.600;5.718;2023-04-15T12:06:23;101227.56;;;15.10;57.06
48053;BME280;33824;51.600;5.718;2023-04-15T12:09:09;101236.25;;;15.40;56.99
48053;BME280;33824;51.600;5.718;2023-04-15T12:14:12;101227.13;;;16.03;54.82
48053;BME280;33824;51.600;5.718;2023-04-15T12:16:43;101238.22;;;15.87;51.61
48053;BME280;33824;51.600;5.718;2023-04-15T12:19:12;101247.09;;;15.80;52.71
48053;BME280;33824;51.600;5.718;2023-04-15T12:21:41;101238.69;;;15.90;54.20
48053;BME280;33824;51.600;5.718;2023-04-15T12:24:09;101245.97;;;16.09;53.39
48053;BME280;33824;51.600;5.718;2023-04-15T12:26:37;101238.28;;;16.00;52.44
48053;BME280;33824;51.600;5.718;2023-04-15T12:29:07;101246.50;;;15.29;52.99
48053;BME280;33824;51.600;5.718;2023-04-15T12:31:34;101241.47;;;15.75;54.31
48053;BME280;33824;51.600;5.718;2023-04-15T12:34:01;101238.34;;;15.72;52.91
48053;BME280;33824;51.600;5.718;2023-04-15T12:36:27;101254.47;;;15.44;52.43
48053;BME280;33824;51.600;5.718;2023-04-15T12:38:56;101270.84;;;15.77;52.78
48053;BME280;33824;51.600;5.718;2023-04-15T12:41:22;101265.31;;;15.51;52.72
48053;BME280;33824;51.600;5.718;2023-04-15T12:43:49;101269.94;;;15.63;53.07
48053;BME280;33824;51.600;5.718;2023-04-15T12:46:15;101267.91;;;15.72;52.68
48053;BME280;33824;51.600;5.718;2023-04-15T12:48:41;101268.09;;;15.43;53.68
48053;BME280;33824;51.600;5.718;2023-04-15T12:51:06;101282.31;;;15.58;54.68
48053;BME280;33824;51.600;5.718;2023-04-15T12:53:31;101281.59;;;15.77;52.78
48053;BME280;33824;51.600;5.718;2023-04-15T12:55:57;101283.22;;;16.06;51.55
48053;BME280;33824;51.600;5.718;2023-04-15T12:58:23;101295.03;;;16.11;50.93
48053;BME280;33824;51.600;5.718;2023-04-15T13:00:49;101284.19;;;15.92;51.37
48053;BME280;33824;51.600;5.718;2023-04-15T13:03:15;101298.75;;;15.76;52.50